createdAt,value
2019-05-19T00:00:16.674Z,12.23
2019-05-19T00:01:16.744Z,12.15
2019-05-19T00:02:17.022Z,12.09
2019-05-19T00:03:16.296Z,12.03
2019-05-19T00:04:16.567Z,12.02
2019-05-19T00:05:16.844Z,12.01
2019-05-19T00:06:17.131Z,11.96
2019-05-19T00:07:16.435Z,11.91
2019-05-19T00:08:16.706Z,11.89
2019-05-19T00:09:16.967Z,11.86
2019-05-19T00:10:16.285Z,11.85
2019-05-19T00:11:16.317Z,11.81
2019-05-19T00:12:16.580Z,11.77
2019-05-19T00:13:16.837Z,11.70
2019-05-19T00:14:17.107Z,11.71
2019-05-19T00:15:16.376Z,11.65
2019-05-19T00:16:16.643Z,11.58
2019-05-19T00:17:16.913Z,11.57
2019-05-19T00:18:17.180Z,11.57
2019-05-19T00:19:26.112Z,11.53
2019-05-19T00:20:16.507Z,11.46
2019-05-19T00:21:16.566Z,11.47
2019-05-19T00:22:16.825Z,11.44
2019-05-19T00:23:17.084Z,11.40
2019-05-19T00:24:16.360Z,11.40
2019-05-19T00:25:16.635Z,11.39
2019-05-19T00:26:16.901Z,11.36
2019-05-19T00:27:17.166Z,11.37
2019-05-19T00:28:16.453Z,11.36
2019-05-19T00:29:16.738Z,11.29
2019-05-19T00:30:17.026Z,11.25
2019-05-19T00:31:17.076Z,11.17
2019-05-19T00:32:16.350Z,11.20
2019-05-19T00:33:16.615Z,11.13
2019-05-19T00:34:16.886Z,11.09
2019-05-19T00:35:17.159Z,11.02
2019-05-19T00:36:19.181Z,10.99
2019-05-19T00:37:17.023Z,10.98
2019-05-19T00:38:16.303Z,10.91
2019-05-19T00:39:16.577Z,10.88
2019-05-19T00:40:16.879Z,10.84
2019-05-19T00:41:16.940Z,10.81
2019-05-19T00:42:16.221Z,10.81
2019-05-19T00:43:16.493Z,10.74
2019-05-19T00:44:16.827Z,10.70
2019-05-19T00:45:17.105Z,10.65
2019-05-19T00:46:16.382Z,10.63
2019-05-19T00:47:16.645Z,10.60
2019-05-19T00:48:16.917Z,10.58
2019-05-19T00:49:17.189Z,10.57
2019-05-19T00:50:16.470Z,10.56
2019-05-19T00:51:16.534Z,10.52
2019-05-19T00:52:16.800Z,10.50
2019-05-19T00:53:17.070Z,10.44
2019-05-19T00:54:16.391Z,10.44
2019-05-19T00:55:16.750Z,10.40
2019-05-19T00:56:17.028Z,10.39
2019-05-19T00:57:16.304Z,10.34
2019-05-19T00:58:16.565Z,10.34
2019-05-19T00:59:16.855Z,10.29
2019-05-19T01:00:17.137Z,10.24
2019-05-19T01:01:17.205Z,10.21
2019-05-19T01:02:16.471Z,10.16
2019-05-19T01:03:16.732Z,10.19
2019-05-19T01:04:16.988Z,10.13
2019-05-19T01:05:16.242Z,10.10
2019-05-19T01:06:16.503Z,10.05
2019-05-19T01:07:16.764Z,10.05
2019-05-19T01:08:17.025Z,10.02
2019-05-19T01:09:16.286Z,9.99
2019-05-19T01:10:16.562Z,9.96
2019-05-19T01:11:16.632Z,9.89
2019-05-19T01:12:16.902Z,9.88
2019-05-19T01:13:17.184Z,9.80
2019-05-19T01:14:16.456Z,9.80
2019-05-19T01:15:16.734Z,9.72
2019-05-19T01:16:17.053Z,9.71
2019-05-19T01:17:16.321Z,9.69
2019-05-19T01:18:16.590Z,9.65
2019-05-19T01:19:16.848Z,9.61
2019-05-19T01:20:17.149Z,9.58
2019-05-19T01:21:17.179Z,9.58
2019-05-19T01:22:16.458Z,9.57
2019-05-19T01:23:16.728Z,9.51
2019-05-19T01:24:17.000Z,9.53
2019-05-19T01:25:16.281Z,9.45
2019-05-19T01:26:16.542Z,9.50
2019-05-19T01:27:16.796Z,9.51
2019-05-19T01:28:17.074Z,9.48
2019-05-19T01:29:16.349Z,9.44
2019-05-19T01:30:16.633Z,9.45
2019-05-19T01:31:16.707Z,9.44
2019-05-19T01:32:16.966Z,9.43
2019-05-19T01:33:16.239Z,9.40
2019-05-19T01:34:16.507Z,9.36
2019-05-19T01:35:16.805Z,9.34
2019-05-19T01:36:17.067Z,9.33
2019-05-19T01:37:16.329Z,9.33
2019-05-19T01:38:16.602Z,9.30
2019-05-19T01:39:16.877Z,9.29
2019-05-19T01:40:17.142Z,9.27
2019-05-19T01:41:17.204Z,9.24
2019-05-19T01:42:16.521Z,9.22
2019-05-19T01:43:16.782Z,9.20
2019-05-19T01:44:17.046Z,9.17
2019-05-19T01:45:16.306Z,9.15
2019-05-19T01:46:16.612Z,9.13
2019-05-19T01:47:16.874Z,9.13
2019-05-19T01:48:17.147Z,9.12
2019-05-19T01:49:16.418Z,9.06
2019-05-19T01:50:17.836Z,9.05
2019-05-19T01:51:16.754Z,9.05
2019-05-19T01:52:17.014Z,9.02
2019-05-19T01:53:16.282Z,9.00
2019-05-19T01:54:16.767Z,9.03
2019-05-19T01:55:17.154Z,9.09
2019-05-19T01:56:16.418Z,9.03
2019-05-19T01:57:16.735Z,8.99
2019-05-19T01:58:17.005Z,8.99
2019-05-19T01:59:16.285Z,9.05
2019-05-19T02:00:16.563Z,9.12
2019-05-19T02:01:16.626Z,9.13
2019-05-19T02:02:16.889Z,9.06
2019-05-19T02:03:17.174Z,9.06
2019-05-19T02:04:16.438Z,9.05
2019-05-19T02:05:16.700Z,9.06
2019-05-19T02:06:16.971Z,9.03
2019-05-19T02:07:16.230Z,9.05
2019-05-19T02:08:16.525Z,9.00
2019-05-19T02:09:16.791Z,8.99
2019-05-19T02:10:17.069Z,8.96
2019-05-19T02:11:17.136Z,8.92
2019-05-19T02:12:16.931Z,8.91
2019-05-19T02:13:17.198Z,8.88
2019-05-19T02:14:16.461Z,8.88
2019-05-19T02:15:16.739Z,8.85
2019-05-19T02:16:17.000Z,8.79
2019-05-19T02:17:16.273Z,8.75
2019-05-19T02:18:16.544Z,8.74
2019-05-19T02:19:16.808Z,8.75
2019-05-19T02:20:30.559Z,8.72
2019-05-19T02:21:16.852Z,8.67
2019-05-19T02:22:17.113Z,8.65
2019-05-19T02:23:16.386Z,8.68
2019-05-19T02:24:16.658Z,8.58
2019-05-19T02:25:16.957Z,8.57
2019-05-19T02:26:16.222Z,8.55
2019-05-19T02:27:16.502Z,8.50
2019-05-19T02:28:16.774Z,8.51
2019-05-19T02:29:17.044Z,8.48
2019-05-19T02:30:16.406Z,8.44
2019-05-19T02:31:16.455Z,8.44
2019-05-19T02:32:16.731Z,8.44
2019-05-19T02:33:17.016Z,8.41
2019-05-19T02:34:16.281Z,8.37
2019-05-19T02:35:16.767Z,8.33
2019-05-19T02:36:17.058Z,8.30
2019-05-19T02:37:16.419Z,8.30
2019-05-19T02:38:16.711Z,8.33
2019-05-19T02:39:16.991Z,8.33
2019-05-19T02:40:16.272Z,8.24
2019-05-19T02:41:16.339Z,8.20
2019-05-19T02:42:16.620Z,8.21
2019-05-19T02:43:16.904Z,8.13
2019-05-19T02:44:17.181Z,8.10
2019-05-19T02:45:16.458Z,8.03
2019-05-19T02:46:16.746Z,8.00
2019-05-19T02:47:17.093Z,7.98
2019-05-19T02:48:16.368Z,7.96
2019-05-19T02:49:16.630Z,7.96
2019-05-19T02:50:16.939Z,7.93
2019-05-19T02:51:16.981Z,7.95
2019-05-19T02:52:16.254Z,7.93
2019-05-19T02:53:16.529Z,7.92
2019-05-19T02:54:16.796Z,7.93
2019-05-19T02:55:17.082Z,7.92
2019-05-19T02:56:16.361Z,7.91
2019-05-19T02:57:16.653Z,7.91
2019-05-19T02:58:16.941Z,7.88
2019-05-19T02:59:16.219Z,7.86
2019-05-19T03:00:16.527Z,7.82
2019-05-19T03:01:16.565Z,7.88
2019-05-19T03:02:16.844Z,7.86
2019-05-19T03:03:17.144Z,7.84
2019-05-19T03:04:16.418Z,7.84
2019-05-19T03:05:16.703Z,7.86
2019-05-19T03:06:17.001Z,7.84
2019-05-19T03:07:16.278Z,7.82
2019-05-19T03:08:16.557Z,7.81
2019-05-19T03:09:16.827Z,7.80
2019-05-19T03:10:17.109Z,7.78
2019-05-19T03:11:17.196Z,7.78
2019-05-19T03:12:16.463Z,7.72
2019-05-19T03:13:16.743Z,7.72
2019-05-19T03:14:17.011Z,7.71
2019-05-19T03:15:16.283Z,7.69
2019-05-19T03:16:16.542Z,7.72
2019-05-19T03:17:16.817Z,7.74
2019-05-19T03:18:17.095Z,7.68
2019-05-19T03:19:16.387Z,7.68
2019-05-19T03:20:16.675Z,7.68
2019-05-19T03:21:16.742Z,7.68
2019-05-19T03:22:17.012Z,7.68
2019-05-19T03:23:16.291Z,7.64
2019-05-19T03:24:16.561Z,7.66
2019-05-19T03:25:16.831Z,7.68
2019-05-19T03:26:17.171Z,7.65
2019-05-19T03:27:16.448Z,7.65
2019-05-19T03:28:16.723Z,7.65
2019-05-19T03:29:17.006Z,7.62
2019-05-19T03:30:16.276Z,7.65
2019-05-19T03:31:16.351Z,7.66
2019-05-19T03:32:16.627Z,7.66
2019-05-19T03:33:16.936Z,7.66
2019-05-19T03:34:16.207Z,7.68
2019-05-19T03:35:16.591Z,7.69
2019-05-19T03:36:16.870Z,7.66
2019-05-19T03:37:17.141Z,7.65
2019-05-19T03:38:16.403Z,7.66
2019-05-19T03:39:16.672Z,7.65
2019-05-19T03:40:16.965Z,7.62
2019-05-19T03:41:17.011Z,7.66
2019-05-19T03:42:16.287Z,7.65
2019-05-19T03:43:16.556Z,7.65
2019-05-19T03:44:16.822Z,7.61
2019-05-19T03:45:17.098Z,7.59
2019-05-19T03:46:16.380Z,7.55
2019-05-19T03:47:16.680Z,7.57
2019-05-19T03:48:17.004Z,7.51
2019-05-19T03:49:16.278Z,7.54
2019-05-19T03:50:16.553Z,7.53
2019-05-19T03:51:29.836Z,7.53
2019-05-19T03:52:16.362Z,7.53
2019-05-19T03:53:16.658Z,7.51
2019-05-19T03:54:16.918Z,7.55
2019-05-19T03:55:17.187Z,7.51
2019-05-19T03:56:16.463Z,7.53
2019-05-19T03:57:16.751Z,7.53
2019-05-19T03:58:17.018Z,7.53
2019-05-19T03:59:16.287Z,7.51
2019-05-19T04:00:16.600Z,7.51
2019-05-19T04:01:16.660Z,7.50
2019-05-19T04:02:16.928Z,7.48
2019-05-19T04:03:17.199Z,7.51
2019-05-19T04:04:16.472Z,7.51
2019-05-19T04:05:16.871Z,7.50
2019-05-19T04:06:17.146Z,7.50
2019-05-19T04:07:16.416Z,7.50
2019-05-19T04:08:16.688Z,7.53
2019-05-19T04:09:17.568Z,7.55
2019-05-19T04:10:16.973Z,7.58
2019-05-19T04:11:17.034Z,7.59
2019-05-19T04:12:16.326Z,7.62
2019-05-19T04:13:16.597Z,7.69
2019-05-19T04:14:16.882Z,7.69
2019-05-19T04:15:17.165Z,7.74
2019-05-19T04:16:16.441Z,7.78
2019-05-19T04:17:16.710Z,7.86
2019-05-19T04:18:16.984Z,7.86
2019-05-19T04:19:16.252Z,7.91
2019-05-19T04:20:16.548Z,7.91
2019-05-19T04:21:16.599Z,7.96
2019-05-19T04:22:16.872Z,8.00
2019-05-19T04:23:17.148Z,8.08
2019-05-19T04:24:16.420Z,8.09
2019-05-19T04:25:16.714Z,8.13
2019-05-19T04:26:17.001Z,8.19
2019-05-19T04:27:16.276Z,8.20
2019-05-19T04:28:16.552Z,8.24
2019-05-19T04:29:16.823Z,8.23
2019-05-19T04:30:17.114Z,8.26
2019-05-19T04:31:17.175Z,8.30
2019-05-19T04:32:16.485Z,8.31
2019-05-19T04:33:16.758Z,8.31
2019-05-19T04:34:17.033Z,8.41
2019-05-19T04:35:16.313Z,8.44
2019-05-19T04:36:16.601Z,8.50
2019-05-19T04:37:16.870Z,8.51
2019-05-19T04:38:17.143Z,8.55
2019-05-19T04:39:16.416Z,8.58
2019-05-19T04:40:16.692Z,8.61
2019-05-19T04:41:16.745Z,8.68
2019-05-19T04:42:17.018Z,8.75
2019-05-19T04:43:16.299Z,8.75
2019-05-19T04:44:16.582Z,8.80
2019-05-19T04:45:16.857Z,8.88
2019-05-19T04:46:17.136Z,8.91
2019-05-19T04:47:16.415Z,8.96
2019-05-19T04:48:16.710Z,8.96
2019-05-19T04:49:17.001Z,9.00
2019-05-19T04:50:16.314Z,9.06
2019-05-19T04:51:16.368Z,9.16
2019-05-19T04:52:16.647Z,9.15
2019-05-19T04:53:16.935Z,9.19
2019-05-19T04:54:16.224Z,9.22
2019-05-19T04:55:16.498Z,9.24
2019-05-19T04:56:19.590Z,9.26
2019-05-19T04:57:16.295Z,9.24
2019-05-19T04:58:16.562Z,9.29
2019-05-19T04:59:16.894Z,9.26
2019-05-19T05:00:17.166Z,9.29
2019-05-19T05:01:16.227Z,9.31
2019-05-19T05:02:16.517Z,9.33
2019-05-19T05:03:16.783Z,9.33
2019-05-19T05:04:17.049Z,9.30
2019-05-19T05:05:16.334Z,9.31
2019-05-19T05:06:16.600Z,9.31
2019-05-19T05:07:16.879Z,9.30
2019-05-19T05:08:28.381Z,9.29
2019-05-19T05:09:17.019Z,9.31
2019-05-19T05:10:16.291Z,9.31
2019-05-19T05:11:16.372Z,9.30
2019-05-19T05:12:16.641Z,9.30
2019-05-19T05:13:16.907Z,9.36
2019-05-19T05:14:17.182Z,9.40
2019-05-19T05:15:16.459Z,9.43
2019-05-19T05:16:16.730Z,9.43
2019-05-19T05:17:17.016Z,9.47
2019-05-19T05:18:16.280Z,9.48
2019-05-19T05:19:16.542Z,9.51
2019-05-19T05:20:16.812Z,9.54
2019-05-19T05:21:16.839Z,9.53
2019-05-19T05:22:21.923Z,9.55
2019-05-19T05:23:16.858Z,9.58
2019-05-19T05:24:17.130Z,9.62
2019-05-19T05:25:16.414Z,9.64
2019-05-19T05:26:16.687Z,9.72
2019-05-19T05:27:16.951Z,9.80
2019-05-19T05:28:16.213Z,9.85
2019-05-19T05:29:16.484Z,9.89
2019-05-19T05:30:16.770Z,9.98
2019-05-19T05:31:16.816Z,10.08
2019-05-19T05:32:17.087Z,10.13
2019-05-19T05:33:16.391Z,10.30
2019-05-19T05:34:16.666Z,10.36
2019-05-19T05:35:16.931Z,10.47
2019-05-19T05:36:17.187Z,10.57
2019-05-19T05:37:16.481Z,10.72
2019-05-19T05:38:16.783Z,10.79
2019-05-19T05:39:17.071Z,10.94
2019-05-19T05:40:16.347Z,11.07
2019-05-19T05:41:16.402Z,11.13
2019-05-19T05:42:16.674Z,11.31
2019-05-19T05:43:16.940Z,11.40
2019-05-19T05:44:16.215Z,11.50
2019-05-19T05:45:16.482Z,11.54
2019-05-19T05:46:16.746Z,11.70
2019-05-19T05:47:17.015Z,11.75
2019-05-19T05:48:16.281Z,11.88
2019-05-19T05:49:16.543Z,11.88
2019-05-19T05:50:17.200Z,11.99
2019-05-19T05:51:16.255Z,11.99
2019-05-19T05:52:16.510Z,12.16
2019-05-19T05:53:16.781Z,12.22
2019-05-19T05:54:17.044Z,12.25
2019-05-19T05:55:16.316Z,12.26
2019-05-19T05:56:16.587Z,12.32
2019-05-19T05:57:16.848Z,12.33
2019-05-19T05:58:17.115Z,12.40
2019-05-19T05:59:16.408Z,12.49
2019-05-19T06:00:16.701Z,12.60
2019-05-19T06:01:16.757Z,12.68
2019-05-19T06:02:17.031Z,12.78
2019-05-19T06:03:16.299Z,12.84
2019-05-19T06:04:16.563Z,13.01
2019-05-19T06:05:16.831Z,13.05
2019-05-19T06:06:17.096Z,12.94
2019-05-19T06:07:16.363Z,12.94
2019-05-19T06:08:16.632Z,13.02
2019-05-19T06:09:16.895Z,13.06
2019-05-19T06:10:17.166Z,13.23
2019-05-19T06:11:16.257Z,13.30
2019-05-19T06:12:16.529Z,13.39
2019-05-19T06:13:16.799Z,13.37
2019-05-19T06:14:17.079Z,13.34
2019-05-19T06:15:16.360Z,13.34
2019-05-19T06:16:16.627Z,13.51
2019-05-19T06:17:16.881Z,13.57
2019-05-19T06:18:17.147Z,13.63
2019-05-19T06:19:16.439Z,13.76
2019-05-19T06:20:16.712Z,13.91
2019-05-19T06:21:16.780Z,13.97
2019-05-19T06:22:17.065Z,14.05
2019-05-19T06:23:16.355Z,14.12
2019-05-19T06:24:16.619Z,14.22
2019-05-19T06:25:16.963Z,14.59
2019-05-19T06:26:16.249Z,14.74
2019-05-19T06:27:16.534Z,14.73
2019-05-19T06:28:16.814Z,15.12
2019-05-19T06:29:17.105Z,15.31
2019-05-19T06:30:16.385Z,15.60
2019-05-19T06:31:16.454Z,15.47
2019-05-19T06:32:16.733Z,15.60
2019-05-19T06:33:17.009Z,15.64
2019-05-19T06:34:16.276Z,15.74
2019-05-19T06:35:16.576Z,15.59
2019-05-19T06:36:16.844Z,16.07
2019-05-19T06:37:17.105Z,16.22
2019-05-19T06:38:16.373Z,16.45
2019-05-19T06:39:16.643Z,16.08
2019-05-19T06:40:16.916Z,16.19
2019-05-19T06:41:16.985Z,16.02
2019-05-19T06:42:16.255Z,16.27
2019-05-19T06:43:16.519Z,16.14
2019-05-19T06:44:16.795Z,16.35
2019-05-19T06:45:17.070Z,16.45
2019-05-19T06:46:16.342Z,16.57
2019-05-19T06:47:16.623Z,17.19
2019-05-19T06:48:16.891Z,16.91
2019-05-19T06:49:17.160Z,17.17
2019-05-19T06:50:16.441Z,17.25
2019-05-19T06:51:16.485Z,17.60
2019-05-19T06:52:16.746Z,17.50
2019-05-19T06:53:17.020Z,17.19
2019-05-19T06:54:16.310Z,16.93
2019-05-19T06:55:16.595Z,17.10
2019-05-19T06:56:16.857Z,16.53
2019-05-19T06:57:17.131Z,16.49
2019-05-19T06:58:16.394Z,17.05
2019-05-19T06:59:16.666Z,17.29
2019-05-19T07:00:16.940Z,17.60
2019-05-19T07:01:17.004Z,17.19
2019-05-19T07:02:16.365Z,17.24
2019-05-19T07:03:16.685Z,17.35
2019-05-19T07:04:16.956Z,17.26
2019-05-19T07:05:16.219Z,17.36
2019-05-19T07:06:16.495Z,17.56
2019-05-19T07:07:16.758Z,17.11
2019-05-19T07:08:17.018Z,17.03
2019-05-19T07:09:16.301Z,17.00
2019-05-19T07:10:16.578Z,16.66
2019-05-19T07:11:16.628Z,16.55
2019-05-19T07:12:16.907Z,16.86
2019-05-19T07:13:17.181Z,16.98
2019-05-19T07:14:16.463Z,17.21
2019-05-19T07:15:16.739Z,17.13
2019-05-19T07:16:17.028Z,17.10
2019-05-19T07:17:16.304Z,17.19
2019-05-19T07:18:16.565Z,17.32
2019-05-19T07:19:16.870Z,17.21
2019-05-19T07:20:17.167Z,17.36
2019-05-19T07:21:17.200Z,17.53
2019-05-19T07:22:16.463Z,17.35
2019-05-19T07:23:27.166Z,17.25
2019-05-19T07:24:17.115Z,17.14
2019-05-19T07:25:16.389Z,17.17
2019-05-19T07:26:16.674Z,17.52
2019-05-19T07:27:16.934Z,17.60
2019-05-19T07:28:17.204Z,17.69
2019-05-19T07:29:16.479Z,17.96
2019-05-19T07:30:16.759Z,18.03
2019-05-19T07:31:16.820Z,17.77
2019-05-19T07:32:17.100Z,17.65
2019-05-19T07:33:16.372Z,17.68
2019-05-19T07:34:16.661Z,17.65
2019-05-19T07:35:16.956Z,17.77
2019-05-19T07:36:16.274Z,18.00
2019-05-19T07:37:16.565Z,18.07
2019-05-19T07:38:16.832Z,18.18
2019-05-19T07:39:17.114Z,18.35
2019-05-19T07:40:16.378Z,18.46
2019-05-19T07:41:16.429Z,18.38
2019-05-19T07:42:16.699Z,18.42
2019-05-19T07:43:17.006Z,18.41
2019-05-19T07:44:16.337Z,18.48
2019-05-19T07:45:16.613Z,18.44
2019-05-19T07:46:16.875Z,18.14
2019-05-19T07:47:17.143Z,18.33
2019-05-19T07:48:16.413Z,18.38
2019-05-19T07:49:16.683Z,18.45
2019-05-19T07:50:16.957Z,18.38
2019-05-19T07:51:17.021Z,18.56
2019-05-19T07:52:16.285Z,18.33
2019-05-19T07:53:16.567Z,18.41
2019-05-19T07:54:16.828Z,18.38
2019-05-19T07:55:17.098Z,18.36
2019-05-19T07:56:16.361Z,18.36
2019-05-19T07:57:16.620Z,18.42
2019-05-19T07:58:16.905Z,18.55
2019-05-19T07:59:16.367Z,18.82
2019-05-19T08:00:16.637Z,18.79
2019-05-19T08:01:16.743Z,18.93
2019-05-19T08:02:17.083Z,19.15
2019-05-19T08:03:16.376Z,19.37
2019-05-19T08:04:16.644Z,19.58
2019-05-19T08:05:16.911Z,19.38
2019-05-19T08:06:17.173Z,19.74
2019-05-19T08:07:16.464Z,19.42
2019-05-19T08:08:16.731Z,19.28
2019-05-19T08:09:17.021Z,19.35
2019-05-19T08:10:16.314Z,19.30
2019-05-19T08:11:16.355Z,19.37
2019-05-19T08:12:16.617Z,19.41
2019-05-19T08:13:16.887Z,19.37
2019-05-19T08:14:17.183Z,19.32
2019-05-19T08:15:16.487Z,18.90
2019-05-19T08:16:16.748Z,19.08
2019-05-19T08:17:17.015Z,19.42
2019-05-19T08:18:16.289Z,19.46
2019-05-19T08:19:16.570Z,19.59
2019-05-19T08:20:16.836Z,19.69
2019-05-19T08:21:16.891Z,19.55
2019-05-19T08:22:17.159Z,19.62
2019-05-19T08:23:16.415Z,19.41
2019-05-19T08:24:16.682Z,19.30
2019-05-19T08:25:16.955Z,19.28
2019-05-19T08:26:16.222Z,19.86
2019-05-19T08:27:16.493Z,19.87
2019-05-19T08:28:16.755Z,19.77
2019-05-19T08:29:17.020Z,19.72
2019-05-19T08:30:16.289Z,19.77
2019-05-19T08:31:16.357Z,19.53
2019-05-19T08:32:16.652Z,19.55
2019-05-19T08:33:16.925Z,19.62
2019-05-19T08:34:17.205Z,19.72
2019-05-19T08:35:16.470Z,19.87
2019-05-19T08:36:16.742Z,19.91
2019-05-19T08:37:17.006Z,19.53
2019-05-19T08:38:16.279Z,19.31
2019-05-19T08:39:16.564Z,19.74
2019-05-19T08:40:16.841Z,19.63
2019-05-19T08:41:16.896Z,19.79
2019-05-19T08:42:17.181Z,20.03
2019-05-19T08:43:16.463Z,20.08
2019-05-19T08:44:16.726Z,20.24
2019-05-19T08:45:16.991Z,20.29
2019-05-19T08:46:16.256Z,19.96
2019-05-19T08:47:16.543Z,19.08
2019-05-19T08:48:16.807Z,18.97
2019-05-19T08:49:17.075Z,19.32
2019-05-19T08:50:16.359Z,19.44
2019-05-19T08:51:16.413Z,19.63
2019-05-19T08:52:16.682Z,19.81
2019-05-19T08:53:16.950Z,19.97
2019-05-19T08:54:18.908Z,19.99
2019-05-19T08:55:16.384Z,19.69
2019-05-19T08:56:16.677Z,19.87
2019-05-19T08:57:16.937Z,19.86
2019-05-19T08:58:17.202Z,20.42
2019-05-19T08:59:16.497Z,20.45
2019-05-19T09:00:16.772Z,20.51
2019-05-19T09:01:16.831Z,20.45
2019-05-19T09:02:17.093Z,20.54
2019-05-19T09:03:16.359Z,20.35
2019-05-19T09:04:16.615Z,20.07
2019-05-19T09:05:16.917Z,19.93
2019-05-19T09:06:17.197Z,19.62
2019-05-19T09:07:16.477Z,19.05
2019-05-19T09:08:16.746Z,19.13
2019-05-19T09:09:17.015Z,19.39
2019-05-19T09:10:16.281Z,19.53
2019-05-19T09:11:16.347Z,19.28
2019-05-19T09:12:16.640Z,19.49
2019-05-19T09:13:16.905Z,19.63
2019-05-19T09:14:17.170Z,19.81
2019-05-19T09:15:16.523Z,19.63
2019-05-19T09:16:16.795Z,19.39
2019-05-19T09:17:17.053Z,19.55
2019-05-19T09:18:16.318Z,19.79
2019-05-19T09:19:16.577Z,19.73
2019-05-19T09:20:16.850Z,19.70
2019-05-19T09:21:16.904Z,19.70
2019-05-19T09:22:17.165Z,19.74
2019-05-19T09:23:16.437Z,19.86
2019-05-19T09:24:29.456Z,19.55
2019-05-19T09:25:16.305Z,19.62
2019-05-19T09:26:16.563Z,19.97
2019-05-19T09:27:16.825Z,19.99
2019-05-19T09:28:17.155Z,20.17
2019-05-19T09:29:16.436Z,20.20
2019-05-19T09:30:16.720Z,20.32
2019-05-19T09:31:16.763Z,20.17
2019-05-19T09:32:17.026Z,20.01
2019-05-19T09:33:16.288Z,20.01
2019-05-19T09:34:16.566Z,19.77
2019-05-19T09:35:16.838Z,19.81
2019-05-19T09:36:17.095Z,20.13
2019-05-19T09:37:16.373Z,20.04
2019-05-19T09:38:16.634Z,20.38
2019-05-19T09:39:16.905Z,20.63
2019-05-19T09:40:17.182Z,20.71
2019-05-19T09:41:16.236Z,20.73
2019-05-19T09:42:16.492Z,20.34
2019-05-19T09:43:16.768Z,20.54
2019-05-19T09:44:17.036Z,20.38
2019-05-19T09:45:16.313Z,20.84
2019-05-19T09:46:16.581Z,20.79
2019-05-19T09:47:16.856Z,20.51
2019-05-19T09:48:17.123Z,20.79
2019-05-19T09:49:16.397Z,20.41
2019-05-19T09:50:16.682Z,20.29
2019-05-19T09:51:16.739Z,20.63
2019-05-19T09:52:17.227Z,20.93
2019-05-19T09:53:16.575Z,21.36
2019-05-19T09:54:16.900Z,20.68
2019-05-19T09:55:17.167Z,20.66
2019-05-19T09:56:16.443Z,20.87
2019-05-19T09:57:16.708Z,20.78
2019-05-19T09:58:19.859Z,21.18
2019-05-19T09:59:16.565Z,20.76
2019-05-19T10:00:16.848Z,20.80
2019-05-19T10:01:16.890Z,20.68
2019-05-19T10:02:17.158Z,20.62
2019-05-19T10:03:19.147Z,20.84
2019-05-19T10:04:17.116Z,20.42
2019-05-19T10:05:16.395Z,20.03
2019-05-19T10:06:16.675Z,20.16
2019-05-19T10:07:16.946Z,20.52
2019-05-19T10:08:16.222Z,20.52
2019-05-19T10:09:16.494Z,20.48
2019-05-19T10:10:16.761Z,20.97
2019-05-19T10:11:16.850Z,20.79
2019-05-19T10:12:17.120Z,21.03
2019-05-19T10:13:16.384Z,20.78
2019-05-19T10:14:16.655Z,20.80
2019-05-19T10:15:16.945Z,20.72
2019-05-19T10:16:16.212Z,21.17
2019-05-19T10:17:16.481Z,21.36
2019-05-19T10:18:16.750Z,20.97
2019-05-19T10:19:17.017Z,21.04
2019-05-19T10:20:16.307Z,20.94
2019-05-19T10:21:16.393Z,20.84
2019-05-19T10:22:16.662Z,21.21
2019-05-19T10:23:16.921Z,21.51
2019-05-19T10:24:17.186Z,21.57
2019-05-19T10:25:22.010Z,21.27
2019-05-19T10:26:16.735Z,21.29
2019-05-19T10:27:17.003Z,21.49
2019-05-19T10:28:16.271Z,21.31
2019-05-19T10:29:16.553Z,21.55
2019-05-19T10:30:16.839Z,21.52
2019-05-19T10:31:16.874Z,21.37
2019-05-19T10:32:17.143Z,21.61
2019-05-19T10:33:16.407Z,21.61
2019-05-19T10:34:16.816Z,21.96
2019-05-19T10:35:16.294Z,22.30
2019-05-19T10:36:16.574Z,22.31
2019-05-19T10:37:16.833Z,22.35
2019-05-19T10:38:17.857Z,22.19
2019-05-19T10:39:16.261Z,22.03
2019-05-19T10:40:16.551Z,22.06
2019-05-19T10:41:16.591Z,22.05
2019-05-19T10:42:16.877Z,22.09
2019-05-19T10:43:17.140Z,22.19
2019-05-19T10:44:16.409Z,22.05
2019-05-19T10:45:16.677Z,22.03
2019-05-19T10:46:16.953Z,22.10
2019-05-19T10:47:16.229Z,21.89
2019-05-19T10:48:16.494Z,22.16
2019-05-19T10:49:16.755Z,22.07
2019-05-19T10:50:17.035Z,22.03
2019-05-19T10:51:17.403Z,22.17
2019-05-19T10:52:16.669Z,22.37
2019-05-19T10:53:16.940Z,21.92
2019-05-19T10:54:16.206Z,22.00
2019-05-19T10:55:16.474Z,22.15
2019-05-19T10:56:19.111Z,22.13
2019-05-19T10:57:16.509Z,22.17
2019-05-19T10:58:16.780Z,22.61
2019-05-19T10:59:17.055Z,22.75
2019-05-19T11:00:16.330Z,22.95
2019-05-19T11:01:16.415Z,22.86
2019-05-19T11:02:16.698Z,22.79
2019-05-19T11:03:16.962Z,22.91
2019-05-19T11:04:16.234Z,22.91
2019-05-19T11:05:16.513Z,22.53
2019-05-19T11:06:16.782Z,22.75
2019-05-19T11:07:17.057Z,23.05
2019-05-19T11:08:16.326Z,23.18
2019-05-19T11:09:16.608Z,23.15
2019-05-19T11:10:16.890Z,23.23
2019-05-19T11:11:16.964Z,22.89
2019-05-19T11:12:16.225Z,22.88
2019-05-19T11:13:16.490Z,23.02
2019-05-19T11:14:16.754Z,23.43
2019-05-19T11:15:17.034Z,23.48
2019-05-19T11:16:16.298Z,23.51
2019-05-19T11:17:16.555Z,23.62
2019-05-19T11:18:16.820Z,23.15
2019-05-19T11:19:17.081Z,23.00
2019-05-19T11:20:16.418Z,23.13
2019-05-19T11:21:16.421Z,23.09
2019-05-19T11:22:16.684Z,23.13
2019-05-19T11:23:16.950Z,22.85
2019-05-19T11:24:16.220Z,22.98
2019-05-19T11:25:16.490Z,22.83
2019-05-19T11:26:16.761Z,22.75
2019-05-19T11:27:17.025Z,22.71
2019-05-19T11:28:16.294Z,22.65
2019-05-19T11:29:16.564Z,22.45
2019-05-19T11:30:16.834Z,22.33
2019-05-19T11:31:16.877Z,22.28
2019-05-19T11:32:17.140Z,22.50
2019-05-19T11:33:16.408Z,22.53
2019-05-19T11:34:16.681Z,22.02
2019-05-19T11:35:16.942Z,22.16
2019-05-19T11:36:17.213Z,22.47
2019-05-19T11:37:16.485Z,22.47
2019-05-19T11:38:16.750Z,22.47
2019-05-19T11:39:17.016Z,22.38
2019-05-19T11:40:16.301Z,22.33
2019-05-19T11:41:16.358Z,22.37
2019-05-19T11:42:16.633Z,22.30
2019-05-19T11:43:16.907Z,22.40
2019-05-19T11:44:17.167Z,22.88
2019-05-19T11:45:16.425Z,22.50
2019-05-19T11:46:16.697Z,22.61
2019-05-19T11:47:16.955Z,22.78
2019-05-19T11:48:16.217Z,22.93
2019-05-19T11:49:16.490Z,23.02
2019-05-19T11:50:16.769Z,22.83
2019-05-19T11:51:16.837Z,22.95
2019-05-19T11:52:17.104Z,23.09
2019-05-19T11:53:16.384Z,23.30
2019-05-19T11:54:16.670Z,23.07
2019-05-19T11:55:16.946Z,22.93
2019-05-19T11:56:16.213Z,22.85
2019-05-19T11:57:16.482Z,22.85
2019-05-19T11:58:16.779Z,22.67
2019-05-19T11:59:17.048Z,22.72
2019-05-19T12:00:16.317Z,22.61
2019-05-19T12:01:16.385Z,22.75
2019-05-19T12:02:16.647Z,22.78
2019-05-19T12:03:16.906Z,22.76
2019-05-19T12:04:17.178Z,22.61
2019-05-19T12:05:16.447Z,22.57
2019-05-19T12:06:16.711Z,22.35
2019-05-19T12:07:16.995Z,22.47
2019-05-19T12:08:16.262Z,22.61
2019-05-19T12:09:16.538Z,22.54
2019-05-19T12:10:16.824Z,22.35
2019-05-19T12:11:16.851Z,22.37
2019-05-19T12:12:17.120Z,22.34
2019-05-19T12:13:16.394Z,22.31
2019-05-19T12:14:16.664Z,22.27
2019-05-19T12:15:16.940Z,22.28
2019-05-19T12:16:16.214Z,22.30
2019-05-19T12:17:16.499Z,22.20
2019-05-19T12:18:16.770Z,22.31
2019-05-19T12:19:17.042Z,22.38
2019-05-19T12:20:16.309Z,22.35
2019-05-19T12:21:16.380Z,22.38
2019-05-19T12:22:16.656Z,22.50
2019-05-19T12:23:16.921Z,22.61
2019-05-19T12:24:17.240Z,22.76
2019-05-19T12:25:16.551Z,22.78
2019-05-19T12:26:22.994Z,22.76
2019-05-19T12:27:17.138Z,22.88
2019-05-19T12:28:16.424Z,22.83
2019-05-19T12:29:16.695Z,22.85
2019-05-19T12:30:16.972Z,22.92
2019-05-19T12:31:17.034Z,22.86
2019-05-19T12:32:16.304Z,23.00
2019-05-19T12:33:16.568Z,22.95
2019-05-19T12:34:16.839Z,22.98
2019-05-19T12:35:17.093Z,23.46
2019-05-19T12:36:16.376Z,23.67
2019-05-19T12:37:16.631Z,23.64
2019-05-19T12:38:16.895Z,22.98
2019-05-19T12:39:17.156Z,22.98
2019-05-19T12:40:16.434Z,22.91
2019-05-19T12:41:16.490Z,22.93
2019-05-19T12:42:16.751Z,23.05
2019-05-19T12:43:17.032Z,22.96
2019-05-19T12:44:16.302Z,22.85
2019-05-19T12:45:16.562Z,22.83
2019-05-19T12:46:16.973Z,22.92
2019-05-19T12:47:16.274Z,23.02
2019-05-19T12:48:16.530Z,22.95
2019-05-19T12:49:16.804Z,22.83
2019-05-19T12:50:17.083Z,22.93
2019-05-19T12:51:17.141Z,23.29
2019-05-19T12:52:16.409Z,23.03
2019-05-19T12:53:16.690Z,23.06
2019-05-19T12:54:16.970Z,23.06
2019-05-19T12:55:16.262Z,22.86
2019-05-19T12:56:16.529Z,22.92
2019-05-19T12:57:16.797Z,22.64
2019-05-19T12:58:17.081Z,22.50
2019-05-19T12:59:16.352Z,22.24
2019-05-19T13:00:16.625Z,22.09
2019-05-19T13:01:16.726Z,22.17